sensor_id;sensor_type;location;lat;lon;timestamp;temperature;humidity
53520;DHT22;39397;53.204;5.778;2024-01-27T00:00:09;4.30;99.90
53520;DHT22;39397;53.204;5.778;2024-01-27T00:02:35;4.10;99.90
53520;DHT22;39397;53.204;5.778;2024-01-27T00:05:01;4.50;99.90
53520;DHT22;39397;53.204;5.778;2024-01-27T00:07:28;4.00;99.90
53520;DHT22;39397;53.204;5.778;2024-01-27T00:09:57;4.10;99.90
53520;DHT22;39397;53.204;5.778;2024-01-27T00:12:24;4.00;99.90
53520;DHT22;39397;53.204;5.778;2024-01-27T00:14:50;4.00;99.90
53520;DHT22;39397;53.204;5.778;2024-01-27T00:17:16;5.90;99.90
53520;DHT22;39397;53.204;5.778;2024-01-27T00:19:41;3.30;99.90
53520;DHT22;39397;53.204;5.778;2024-01-27T00:22:07;4.30;99.90
53520;DHT22;39397;53.204;5.778;2024-01-27T00:24:33;4.90;99.90
53520;DHT22;39397;53.204;5.778;2024-01-27T00:27:00;4.00;99.90
53520;DHT22;39397;53.204;5.778;2024-01-27T00:29:26;4.80;99.90
53520;DHT22;39397;53.204;5.778;2024-01-27T00:31:51;5.30;99.90
53520;DHT22;39397;53.204;5.778;2024-01-27T00:34:20;5.50;99.90
53520;DHT22;39397;53.204;5.778;2024-01-27T00:36:46;5.80;99.90
53520;DHT22;39397;53.204;5.778;2024-01-27T00:39:20;5.00;99.90
53520;DHT22;39397;53.204;5.778;2024-01-27T00:41:46;2.60;99.90
53520;DHT22;39397;53.204;5.778;2024-01-27T00:44:11;5.70;99.90
53520;DHT22;39397;53.204;5.778;2024-01-27T00:46:37;5.80;99.90
53520;DHT22;39397;53.204;5.778;2024-01-27T00:49:03;4.10;99.90
53520;DHT22;39397;53.204;5.778;2024-01-27T00:51:29;4.10;99.90
53520;DHT22;39397;53.204;5.778;2024-01-27T00:53:55;5.20;99.90
53520;DHT22;39397;53.204;5.778;2024-01-27T00:56:21;5.70;99.90
53520;DHT22;39397;53.204;5.778;2024-01-27T00:58:47;5.30;99.90
53520;DHT22;39397;53.204;5.778;2024-01-27T01:01:12;3.90;99.90
53520;DHT22;39397;53.204;5.778;2024-01-27T01:03:38;5.80;99.90
53520;DHT22;39397;53.204;5.778;2024-01-27T01:06:04;4.90;99.90
53520;DHT22;39397;53.204;5.778;2024-01-27T01:08:31;6.00;99.90
53520;DHT22;39397;53.204;5.778;2024-01-27T01:10:57;3.90;99.90
53520;DHT22;39397;53.204;5.778;2024-01-27T01:13:25;3.80;99.90
53520;DHT22;39397;53.204;5.778;2024-01-27T01:15:50;3.80;99.90
53520;DHT22;39397;53.204;5.778;2024-01-27T01:18:16;3.90;99.90
53520;DHT22;39397;53.204;5.778;2024-01-27T01:20:42;4.10;99.90
53520;DHT22;39397;53.204;5.778;2024-01-27T01:23:08;5.40;99.90
53520;DHT22;39397;53.204;5.778;2024-01-27T01:25:33;4.30;99.90
53520;DHT22;39397;53.204;5.778;2024-01-27T01:27:59;5.50;99.90
53520;DHT22;39397;53.204;5.778;2024-01-27T01:30:25;5.90;99.90
53520;DHT22;39397;53.204;5.778;2024-01-27T01:32:51;4.90;99.90
53520;DHT22;39397;53.204;5.778;2024-01-27T01:35:17;4.00;99.90
53520;DHT22;39397;53.204;5.778;2024-01-27T01:37:43;4.90;99.90
53520;DHT22;39397;53.204;5.778;2024-01-27T01:40:09;4.00;99.90
53520;DHT22;39397;53.204;5.778;2024-01-27T01:42:34;3.80;99.90
53520;DHT22;39397;53.204;5.778;2024-01-27T01:45:00;4.00;99.90
53520;DHT22;39397;53.204;5.778;2024-01-27T01:47:26;4.30;99.90
53520;DHT22;39397;53.204;5.778;2024-01-27T01:49:52;4.50;99.90
53520;DHT22;39397;53.204;5.778;2024-01-27T01:52:20;5.00;99.90
53520;DHT22;39397;53.204;5.778;2024-01-27T01:54:50;5.20;99.90
53520;DHT22;39397;53.204;5.778;2024-01-27T01:57:16;3.60;99.90
53520;DHT22;39397;53.204;5.778;2024-01-27T01:59:43;4.70;99.90
53520;DHT22;39397;53.204;5.778;2024-01-27T02:02:09;5.40;99.90
53520;DHT22;39397;53.204;5.778;2024-01-27T02:04:44;4.90;99.90
53520;DHT22;39397;53.204;5.778;2024-01-27T02:07:13;4.90;99.90
53520;DHT22;39397;53.204;5.778;2024-01-27T02:09:39;5.40;99.90
53520;DHT22;39397;53.204;5.778;2024-01-27T02:12:05;3.40;99.90
53520;DHT22;39397;53.204;5.778;2024-01-27T02:14:31;3.50;99.90
53520;DHT22;39397;53.204;5.778;2024-01-27T02:16:57;3.90;99.90
53520;DHT22;39397;53.204;5.778;2024-01-27T02:19:23;3.50;99.90
53520;DHT22;39397;53.204;5.778;2024-01-27T02:21:49;3.50;99.90
53520;DHT22;39397;53.204;5.778;2024-01-27T02:24:15;4.70;99.90
53520;DHT22;39397;53.204;5.778;2024-01-27T02:26:41;3.50;99.90
53520;DHT22;39397;53.204;5.778;2024-01-27T02:29:07;3.50;99.90
53520;DHT22;39397;53.204;5.778;2024-01-27T02:31:33;4.10;99.90
53520;DHT22;39397;53.204;5.778;2024-01-27T02:33:58;3.70;99.90
53520;DHT22;39397;53.204;5.778;2024-01-27T02:36:24;4.60;99.90
53520;DHT22;39397;53.204;5.778;2024-01-27T02:38:50;2.00;99.90
53520;DHT22;39397;53.204;5.778;2024-01-27T02:41:16;5.10;99.90
53520;DHT22;39397;53.204;5.778;2024-01-27T02:43:41;3.70;99.90
53520;DHT22;39397;53.204;5.778;2024-01-27T02:46:12;3.70;99.90
53520;DHT22;39397;53.204;5.778;2024-01-27T02:48:44;4.40;99.90
53520;DHT22;39397;53.204;5.778;2024-01-27T02:51:10;4.20;99.90
53520;DHT22;39397;53.204;5.778;2024-01-27T02:53:36;4.70;99.90
53520;DHT22;39397;53.204;5.778;2024-01-27T02:56:02;5.00;99.90
53520;DHT22;39397;53.204;5.778;2024-01-27T02:58:28;1.70;99.90
53520;DHT22;39397;53.204;5.778;2024-01-27T03:00:53;3.60;99.90
53520;DHT22;39397;53.204;5.778;2024-01-27T03:03:19;3.60;99.90
53520;DHT22;39397;53.204;5.778;2024-01-27T03:05:45;4.20;99.90
53520;DHT22;39397;53.204;5.778;2024-01-27T03:08:10;6.10;99.90
53520;DHT22;39397;53.204;5.778;2024-01-27T03:10:36;3.90;99.90
53520;DHT22;39397;53.204;5.778;2024-01-27T03:13:02;3.60;99.90
53520;DHT22;39397;53.204;5.778;2024-01-27T03:15:29;3.60;99.90
53520;DHT22;39397;53.204;5.778;2024-01-27T03:17:55;3.70;99.90
53520;DHT22;39397;53.204;5.778;2024-01-27T03:20:21;4.10;99.90
53520;DHT22;39397;53.204;5.778;2024-01-27T03:22:47;4.60;99.90
53520;DHT22;39397;53.204;5.778;2024-01-27T03:25:13;5.80;99.90
53520;DHT22;39397;53.204;5.778;2024-01-27T03:27:39;4.20;99.90
53520;DHT22;39397;53.204;5.778;2024-01-27T03:30:05;3.60;99.90
53520;DHT22;39397;53.204;5.778;2024-01-27T03:32:31;3.70;99.90
53520;DHT22;39397;53.204;5.778;2024-01-27T03:34:58;5.20;99.90
53520;DHT22;39397;53.204;5.778;2024-01-27T03:37:24;5.70;99.90
53520;DHT22;39397;53.204;5.778;2024-01-27T03:39:50;4.50;99.90
53520;DHT22;39397;53.204;5.778;2024-01-27T03:42:16;3.70;99.90
53520;DHT22;39397;53.204;5.778;2024-01-27T03:44:41;5.50;99.90
53520;DHT22;39397;53.204;5.778;2024-01-27T03:47:07;5.70;99.90
53520;DHT22;39397;53.204;5.778;2024-01-27T03:49:33;2.20;99.90
53520;DHT22;39397;53.204;5.778;2024-01-27T03:51:59;4.10;99.90
53520;DHT22;39397;53.204;5.778;2024-01-27T03:54:24;3.60;99.90
53520;DHT22;39397;53.204;5.778;2024-01-27T03:56:50;5.10;99.90
53520;DHT22;39397;53.204;5.778;2024-01-27T03:59:16;3.80;99.90
53520;DHT22;39397;53.204;5.778;2024-01-27T04:01:41;5.60;99.90
53520;DHT22;39397;53.204;5.778;2024-01-27T04:04:07;3.60;99.90
53520;DHT22;39397;53.204;5.778;2024-01-27T04:06:37;5.60;99.90
53520;DHT22;39397;53.204;5.778;2024-01-27T04:09:04;5.30;99.90
53520;DHT22;39397;53.204;5.778;2024-01-27T04:11:29;5.30;99.90
53520;DHT22;39397;53.204;5.778;2024-01-27T04:13:55;3.70;99.90
53520;DHT22;39397;53.204;5.778;2024-01-27T04:16:21;4.80;99.90
53520;DHT22;39397;53.204;5.778;2024-01-27T04:18:47;3.60;99.90
53520;DHT22;39397;53.204;5.778;2024-01-27T04:21:12;4.20;99.90
53520;DHT22;39397;53.204;5.778;2024-01-27T04:23:38;4.50;99.90
53520;DHT22;39397;53.204;5.778;2024-01-27T04:26:04;5.70;99.90
53520;DHT22;39397;53.204;5.778;2024-01-27T04:28:31;5.70;99.90
53520;DHT22;39397;53.204;5.778;2024-01-27T04:30:57;5.40;99.90
53520;DHT22;39397;53.204;5.778;2024-01-27T04:33:23;3.80;99.90
53520;DHT22;39397;53.204;5.778;2024-01-27T04:35:49;4.30;99.90
53520;DHT22;39397;53.204;5.778;2024-01-27T04:38:14;3.70;99.90
53520;DHT22;39397;53.204;5.778;2024-01-27T04:40:40;4.60;99.90
53520;DHT22;39397;53.204;5.778;2024-01-27T04:43:06;5.40;99.90
53520;DHT22;39397;53.204;5.778;2024-01-27T04:45:31;3.70;99.90
53520;DHT22;39397;53.204;5.778;2024-01-27T04:47:57;3.40;99.90
53520;DHT22;39397;53.204;5.778;2024-01-27T04:50:23;4.90;99.90
53520;DHT22;39397;53.204;5.778;2024-01-27T04:52:49;4.90;99.90
53520;DHT22;39397;53.204;5.778;2024-01-27T04:55:14;4.80;99.90
53520;DHT22;39397;53.204;5.778;2024-01-27T04:57:40;4.70;99.90
53520;DHT22;39397;53.204;5.778;2024-01-27T05:00:06;3.90;99.90
53520;DHT22;39397;53.204;5.778;2024-01-27T05:02:40;3.50;99.90
53520;DHT22;39397;53.204;5.778;2024-01-27T05:05:07;5.40;99.90
53520;DHT22;39397;53.204;5.778;2024-01-27T05:07:33;3.60;99.90
53520;DHT22;39397;53.204;5.778;2024-01-27T05:09:59;5.50;99.90
53520;DHT22;39397;53.204;5.778;2024-01-27T05:12:25;3.40;99.90
53520;DHT22;39397;53.204;5.778;2024-01-27T05:14:50;4.20;99.90
53520;DHT22;39397;53.204;5.778;2024-01-27T05:17:16;3.50;99.90
53520;DHT22;39397;53.204;5.778;2024-01-27T05:19:42;3.30;99.90
53520;DHT22;39397;53.204;5.778;2024-01-27T05:22:08;3.30;99.90
53520;DHT22;39397;53.204;5.778;2024-01-27T05:24:33;3.30;99.90
53520;DHT22;39397;53.204;5.778;2024-01-27T05:26:59;3.90;99.90
53520;DHT22;39397;53.204;5.778;2024-01-27T05:29:28;3.10;99.90
53520;DHT22;39397;53.204;5.778;2024-01-27T05:31:54;3.80;99.90
53520;DHT22;39397;53.204;5.778;2024-01-27T05:34:20;3.20;99.90
53520;DHT22;39397;53.204;5.778;2024-01-27T05:36:47;3.80;99.90
53520;DHT22;39397;53.204;5.778;2024-01-27T05:39:13;3.10;99.90
53520;DHT22;39397;53.204;5.778;2024-01-27T05:41:39;2.90;99.90
53520;DHT22;39397;53.204;5.778;2024-01-27T05:44:05;3.10;99.90
53520;DHT22;39397;53.204;5.778;2024-01-27T05:46:31;4.60;99.90
53520;DHT22;39397;53.204;5.778;2024-01-27T05:48:56;2.80;99.90
53520;DHT22;39397;53.204;5.778;2024-01-27T05:51:27;2.80;99.90
53520;DHT22;39397;53.204;5.778;2024-01-27T05:53:52;2.90;99.90
53520;DHT22;39397;53.204;5.778;2024-01-27T05:56:18;3.80;99.90
53520;DHT22;39397;53.204;5.778;2024-01-27T05:58:47;4.30;99.90
53520;DHT22;39397;53.204;5.778;2024-01-27T06:01:13;3.50;99.90
53520;DHT22;39397;53.204;5.778;2024-01-27T06:03:41;4.30;99.90
53520;DHT22;39397;53.204;5.778;2024-01-27T06:06:08;3.30;99.90
53520;DHT22;39397;53.204;5.778;2024-01-27T06:08:33;3.60;99.90
53520;DHT22;39397;53.204;5.778;2024-01-27T06:10:59;3.90;99.90
53520;DHT22;39397;53.204;5.778;2024-01-27T06:13:25;2.90;99.90
53520;DHT22;39397;53.204;5.778;2024-01-27T06:15:51;3.90;99.90
53520;DHT22;39397;53.204;5.778;2024-01-27T06:18:16;4.20;99.90
53520;DHT22;39397;53.204;5.778;2024-01-27T06:20:42;4.30;99.90
53520;DHT22;39397;53.204;5.778;2024-01-27T06:23:08;2.90;99.90
53520;DHT22;39397;53.204;5.778;2024-01-27T06:25:34;2.90;99.90
53520;DHT22;39397;53.204;5.778;2024-01-27T06:28:00;2.90;99.90
53520;DHT22;39397;53.204;5.778;2024-01-27T06:30:25;4.50;99.90
53520;DHT22;39397;53.204;5.778;2024-01-27T06:32:51;2.80;99.90
53520;DHT22;39397;53.204;5.778;2024-01-27T06:35:17;3.70;99.90
53520;DHT22;39397;53.204;5.778;2024-01-27T06:37:43;3.10;99.90
53520;DHT22;39397;53.204;5.778;2024-01-27T06:40:09;2.80;99.90
53520;DHT22;39397;53.204;5.778;2024-01-27T06:42:35;2.70;99.90
53520;DHT22;39397;53.204;5.778;2024-01-27T06:45:01;4.20;99.90
53520;DHT22;39397;53.204;5.778;2024-01-27T06:47:27;2.60;99.90
53520;DHT22;39397;53.204;5.778;2024-01-27T06:49:58;3.10;99.90
53520;DHT22;39397;53.204;5.778;2024-01-27T06:52:24;4.60;99.90
53520;DHT22;39397;53.204;5.778;2024-01-27T06:54:49;3.50;99.90
53520;DHT22;39397;53.204;5.778;2024-01-27T06:57:19;3.50;99.90
53520;DHT22;39397;53.204;5.778;2024-01-27T06:59:49;2.60;99.90
53520;DHT22;39397;53.204;5.778;2024-01-27T07:02:27;2.60;99.90
53520;DHT22;39397;53.204;5.778;2024-01-27T07:04:54;3.70;99.90
53520;DHT22;39397;53.204;5.778;2024-01-27T07:07:26;4.40;99.90
53520;DHT22;39397;53.204;5.778;2024-01-27T07:09:54;2.60;99.90
53520;DHT22;39397;53.204;5.778;2024-01-27T07:12:21;2.80;99.90
53520;DHT22;39397;53.204;5.778;2024-01-27T07:14:47;3.90;99.90
53520;DHT22;39397;53.204;5.778;2024-01-27T07:17:12;2.70;99.90
53520;DHT22;39397;53.204;5.778;2024-01-27T07:19:38;3.90;99.90
53520;DHT22;39397;53.204;5.778;2024-01-27T07:22:04;2.60;99.90
53520;DHT22;39397;53.204;5.778;2024-01-27T07:24:30;3.30;99.90
53520;DHT22;39397;53.204;5.778;2024-01-27T07:26:56;3.30;99.90
53520;DHT22;39397;53.204;5.778;2024-01-27T07:29:23;3.30;99.90
53520;DHT22;39397;53.204;5.778;2024-01-27T07:31:50;4.90;99.90
53520;DHT22;39397;53.204;5.778;2024-01-27T07:34:15;3.30;99.90
53520;DHT22;39397;53.204;5.778;2024-01-27T07:36:41;4.00;99.90
53520;DHT22;39397;53.204;5.778;2024-01-27T07:39:07;3.30;99.90
53520;DHT22;39397;53.204;5.778;2024-01-27T07:41:33;4.60;99.90
53520;DHT22;39397;53.204;5.778;2024-01-27T07:44:07;3.20;99.90
53520;DHT22;39397;53.204;5.778;2024-01-27T07:46:34;2.80;99.90
53520;DHT22;39397;53.204;5.778;2024-01-27T07:49:01;3.10;99.90
53520;DHT22;39397;53.204;5.778;2024-01-27T07:51:28;2.90;99.90
53520;DHT22;39397;53.204;5.778;2024-01-27T07:53:53;2.90;99.90
53520;DHT22;39397;53.204;5.778;2024-01-27T07:56:19;4.40;99.90
53520;DHT22;39397;53.204;5.778;2024-01-27T07:58:45;3.60;99.90
53520;DHT22;39397;53.204;5.778;2024-01-27T08:01:14;2.80;99.90
53520;DHT22;39397;53.204;5.778;2024-01-27T08:03:41;3.00;99.90
53520;DHT22;39397;53.204;5.778;2024-01-27T08:06:10;4.20;99.90
53520;DHT22;39397;53.204;5.778;2024-01-27T08:08:37;2.90;99.90
53520;DHT22;39397;53.204;5.778;2024-01-27T08:11:02;3.30;99.90
53520;DHT22;39397;53.204;5.778;2024-01-27T08:13:28;3.00;99.90
53520;DHT22;39397;53.204;5.778;2024-01-27T08:15:54;3.00;99.90
53520;DHT22;39397;53.204;5.778;2024-01-27T08:18:20;3.40;99.90
53520;DHT22;39397;53.204;5.778;2024-01-27T08:20:45;3.20;99.90
53520;DHT22;39397;53.204;5.778;2024-01-27T08:23:11;4.50;99.90
53520;DHT22;39397;53.204;5.778;2024-01-27T08:25:37;3.20;99.90
53520;DHT22;39397;53.204;5.778;2024-01-27T08:28:05;5.20;99.90
53520;DHT22;39397;53.204;5.778;2024-01-27T08:30:31;3.40;99.90
53520;DHT22;39397;53.204;5.778;2024-01-27T08:32:56;1.80;99.90
53520;DHT22;39397;53.204;5.778;2024-01-27T08:35:22;3.50;99.90
53520;DHT22;39397;53.204;5.778;2024-01-27T08:37:48;4.10;99.90
53520;DHT22;39397;53.204;5.778;2024-01-27T08:40:14;4.80;99.90
53520;DHT22;39397;53.204;5.778;2024-01-27T08:42:39;3.50;99.90
53520;DHT22;39397;53.204;5.778;2024-01-27T08:45:06;5.30;99.90
53520;DHT22;39397;53.204;5.778;2024-01-27T08:47:32;3.70;99.90
53520;DHT22;39397;53.204;5.778;2024-01-27T08:49:57;5.20;99.90
53520;DHT22;39397;53.204;5.778;2024-01-27T08:52:23;3.90;99.90
53520;DHT22;39397;53.204;5.778;2024-01-27T08:54:49;3.90;99.90
53520;DHT22;39397;53.204;5.778;2024-01-27T08:57:14;4.00;99.90
53520;DHT22;39397;53.204;5.778;2024-01-27T08:59:40;4.50;99.90
53520;DHT22;39397;53.204;5.778;2024-01-27T09:02:06;4.20;99.90
53520;DHT22;39397;53.204;5.778;2024-01-27T09:04:31;4.20;99.90
53520;DHT22;39397;53.204;5.778;2024-01-27T09:06:57;4.20;99.90
53520;DHT22;39397;53.204;5.778;2024-01-27T09:09:23;4.60;99.90
53520;DHT22;39397;53.204;5.778;2024-01-27T09:11:49;4.50;99.90
53520;DHT22;39397;53.204;5.778;2024-01-27T09:14:15;4.30;99.90
53520;DHT22;39397;53.204;5.778;2024-01-27T09:16:41;4.90;99.90
53520;DHT22;39397;53.204;5.778;2024-01-27T09:19:07;5.10;99.90
53520;DHT22;39397;53.204;5.778;2024-01-27T09:21:33;4.70;99.90
53520;DHT22;39397;53.204;5.778;2024-01-27T09:23:59;6.00;99.90
53520;DHT22;39397;53.204;5.778;2024-01-27T09:26:27;4.50;99.90
53520;DHT22;39397;53.204;5.778;2024-01-27T09:28:52;6.70;99.90
53520;DHT22;39397;53.204;5.778;2024-01-27T09:31:24;5.50;99.90
53520;DHT22;39397;53.204;5.778;2024-01-27T09:33:52;4.70;99.90
53520;DHT22;39397;53.204;5.778;2024-01-27T09:36:19;4.90;99.90
53520;DHT22;39397;53.204;5.778;2024-01-27T09:38:45;6.20;99.90
53520;DHT22;39397;53.204;5.778;2024-01-27T09:41:14;6.50;99.90
53520;DHT22;39397;53.204;5.778;2024-01-27T09:43:45;5.00;99.90
53520;DHT22;39397;53.204;5.778;2024-01-27T09:46:15;7.00;99.90
53520;DHT22;39397;53.204;5.778;2024-01-27T09:48:41;5.80;99.90
53520;DHT22;39397;53.204;5.778;2024-01-27T09:51:08;5.30;99.90
53520;DHT22;39397;53.204;5.778;2024-01-27T09:53:34;6.10;99.90
53520;DHT22;39397;53.204;5.778;2024-01-27T09:56:01;6.40;99.90
53520;DHT22;39397;53.204;5.778;2024-01-27T09:58:30;6.10;99.90
53520;DHT22;39397;53.204;5.778;2024-01-27T10:00:58;5.60;99.90
53520;DHT22;39397;53.204;5.778;2024-01-27T10:03:25;5.80;99.90
53520;DHT22;39397;53.204;5.778;2024-01-27T10:05:56;6.10;99.90
53520;DHT22;39397;53.204;5.778;2024-01-27T10:08:23;5.70;99.90
53520;DHT22;39397;53.204;5.778;2024-01-27T10:10:54;6.00;99.90
53520;DHT22;39397;53.204;5.778;2024-01-27T10:13:21;5.90;99.90
53520;DHT22;39397;53.204;5.778;2024-01-27T10:16:02;5.90;99.90
53520;DHT22;39397;53.204;5.778;2024-01-27T10:18:28;6.00;99.90
53520;DHT22;39397;53.204;5.778;2024-01-27T10:20:54;6.50;99.90
53520;DHT22;39397;53.204;5.778;2024-01-27T10:23:19;7.30;99.90
53520;DHT22;39397;53.204;5.778;2024-01-27T10:25:45;6.20;99.90
53520;DHT22;39397;53.204;5.778;2024-01-27T10:28:11;7.20;99.90
53520;DHT22;39397;53.204;5.778;2024-01-27T10:30:37;6.30;99.90
53520;DHT22;39397;53.204;5.778;2024-01-27T10:33:03;6.40;99.90
53520;DHT22;39397;53.204;5.778;2024-01-27T10:35:29;6.40;99.90
53520;DHT22;39397;53.204;5.778;2024-01-27T10:37:56;6.50;99.90
53520;DHT22;39397;53.204;5.778;2024-01-27T10:40:22;6.60;99.90
53520;DHT22;39397;53.204;5.778;2024-01-27T10:43:05;6.50;99.90
53520;DHT22;39397;53.204;5.778;2024-01-27T10:45:38;6.60;99.90
53520;DHT22;39397;53.204;5.778;2024-01-27T10:48:05;6.60;99.90
53520;DHT22;39397;53.204;5.778;2024-01-27T10:50:40;6.70;99.90
53520;DHT22;39397;53.204;5.778;2024-01-27T10:53:09;8.20;99.90
53520;DHT22;39397;53.204;5.778;2024-01-27T10:55:42;7.50;99.90
53520;DHT22;39397;53.204;5.778;2024-01-27T10:58:10;7.90;99.90
53520;DHT22;39397;53.204;5.778;2024-01-27T11:00:38;7.80;99.90
53520;DHT22;39397;53.204;5.778;2024-01-27T11:03:06;7.00;99.90
53520;DHT22;39397;53.204;5.778;2024-01-27T11:05:35;7.00;99.90
53520;DHT22;39397;53.204;5.778;2024-01-27T11:08:02;7.20;99.90
53520;DHT22;39397;53.204;5.778;2024-01-27T11:10:32;7.20;99.90
53520;DHT22;39397;53.204;5.778;2024-01-27T11:13:04;7.30;99.90
53520;DHT22;39397;53.204;5.778;2024-01-27T11:15:30;7.50;99.90
53520;DHT22;39397;53.204;5.778;2024-01-27T11:17:59;7.20;99.90
53520;DHT22;39397;53.204;5.778;2024-01-27T11:20:34;7.70;99.90
53520;DHT22;39397;53.204;5.778;2024-01-27T11:23:11;6.80;99.90
53520;DHT22;39397;53.204;5.778;2024-01-27T11:25:37;7.40;99.90
53520;DHT22;39397;53.204;5.778;2024-01-27T11:28:11;8.20;99.90
53520;DHT22;39397;53.204;5.778;2024-01-27T11:30:39;7.50;99.90
53520;DHT22;39397;53.204;5.778;2024-01-27T11:33:05;7.40;99.90
53520;DHT22;39397;53.204;5.778;2024-01-27T11:35:32;7.50;99.90
53520;DHT22;39397;53.204;5.778;2024-01-27T11:37:57;8.40;99.90
53520;DHT22;39397;53.204;5.778;2024-01-27T11:40:23;8.60;99.90
53520;DHT22;39397;53.204;5.778;2024-01-27T11:43:00;7.70;99.90
53520;DHT22;39397;53.204;5.778;2024-01-27T11:45:26;7.50;99.90
53520;DHT22;39397;53.204;5.778;2024-01-27T11:47:56;8.00;99.90
53520;DHT22;39397;53.204;5.778;2024-01-27T11:50:22;8.60;99.90
53520;DHT22;39397;53.204;5.778;2024-01-27T11:52:48;8.70;99.90
53520;DHT22;39397;53.204;5.778;2024-01-27T11:55:15;7.70;99.90
53520;DHT22;39397;53.204;5.778;2024-01-27T11:57:41;7.70;99.90
53520;DHT22;39397;53.204;5.778;2024-01-27T12:00:07;7.70;99.90
53520;DHT22;39397;53.204;5.778;2024-01-27T12:02:35;7.70;99.90
53520;DHT22;39397;53.204;5.778;2024-01-27T12:05:01;7.70;99.90
53520;DHT22;39397;53.204;5.778;2024-01-27T12:07:27;7.70;99.90
53520;DHT22;39397;53.204;5.778;2024-01-27T12:09:56;7.70;99.90
53520;DHT22;39397;53.204;5.778;2024-01-27T12:12:24;9.30;99.90
53520;DHT22;39397;53.204;5.778;2024-01-27T12:14:50;7.90;99.90
53520;DHT22;39397;53.204;5.778;2024-01-27T12:17:18;7.90;99.90
53520;DHT22;39397;53.204;5.778;2024-01-27T12:19:48;7.90;99.90
53520;DHT22;39397;53.204;5.778;2024-01-27T12:22:27;8.10;99.90
53520;DHT22;39397;53.204;5.778;2024-01-27T12:24:54;8.10;99.90
53520;DHT22;39397;53.204;5.778;2024-01-27T12:27:21;8.50;99.90
53520;DHT22;39397;53.204;5.778;2024-01-27T12:29:48;8.00;99.90
53520;DHT22;39397;53.204;5.778;2024-01-27T12:32:15;8.60;99.90
53520;DHT22;39397;53.204;5.778;2024-01-27T12:34:42;8.00;99.90
53520;DHT22;39397;53.204;5.778;2024-01-27T12:37:09;8.20;99.90
53520;DHT22;39397;53.204;5.778;2024-01-27T12:39:38;8.10;99.90
53520;DHT22;39397;53.204;5.778;2024-01-27T12:42:06;8.00;99.90
53520;DHT22;39397;53.204;5.778;2024-01-27T12:44:31;8.20;99.90
53520;DHT22;39397;53.204;5.778;2024-01-27T12:46:57;8.00;99.90
53520;DHT22;39397;53.204;5.778;2024-01-27T12:49:23;8.10;99.90
53520;DHT22;39397;53.204;5.778;2024-01-27T12:51:49;8.10;99.90
53520;DHT22;39397;53.204;5.778;2024-01-27T12:54:14;8.10;99.90
53520;DHT22;39397;53.204;5.778;2024-01-27T12:56:41;8.70;99.90
53520;DHT22;39397;53.204;5.778;2024-01-27T12:59:07;8.10;99.90
53520;DHT22;39397;53.204;5.778;2024-01-27T13:01:35;8.10;99.90
53520;DHT22;39397;53.204;5.778;2024-01-27T13:04:02;8.20;99.90
53520;DHT22;39397;53.204;5.778;2024-01-27T13:06:28;8.20;99.90
53520;DHT22;39397;53.204;5.778;2024-01-27T13:08:53;8.10;99.90
53520;DHT22;39397;53.204;5.778;2024-01-27T13:11:20;7.10;99.90
53520;DHT22;39397;53.204;5.778;2024-01-27T13:13:46;8.20;99.90
53520;DHT22;39397;53.204;5.778;2024-01-27T13:16:11;8.30;99.90
53520;DHT22;39397;53.204;5.778;2024-01-27T13:18:37;8.50;99.90
53520;DHT22;39397;53.204;5.778;2024-01-27T13:21:03;8.30;99.90
53520;DHT22;39397;53.204;5.778;2024-01-27T13:23:31;8.30;99.90
53520;DHT22;39397;53.204;5.778;2024-01-27T13:25:57;8.30;99.90
53520;DHT22;39397;53.204;5.778;2024-01-27T13:28:23;8.70;99.90
53520;DHT22;39397;53.204;5.778;2024-01-27T13:30:49;8.50;99.90
53520;DHT22;39397;53.204;5.778;2024-01-27T13:33:18;9.10;99.90
53520;DHT22;39397;53.204;5.778;2024-01-27T13:35:43;8.50;99.90
53520;DHT22;39397;53.204;5.778;2024-01-27T13:38:16;8.40;99.90
53520;DHT22;39397;53.204;5.778;2024-01-27T13:40:49;7.10;99.90
53520;DHT22;39397;53.204;5.778;2024-01-27T13:43:15;8.40;99.90
53520;DHT22;39397;53.204;5.778;2024-01-27T13:45:40;8.10;99.90
53520;DHT22;39397;53.204;5.778;2024-01-27T13:48:07;8.70;99.90
53520;DHT22;39397;53.204;5.778;2024-01-27T13:50:33;8.20;99.90
53520;DHT22;39397;53.204;5.778;2024-01-27T13:52:59;8.50;99.90
53520;DHT22;39397;53.204;5.778;2024-01-27T13:55:24;8.90;99.90
53520;DHT22;39397;53.204;5.778;2024-01-27T13:57:50;8.10;99.90
53520;DHT22;39397;53.204;5.778;2024-01-27T14:00:16;8.30;99.90
53520;DHT22;39397;53.204;5.778;2024-01-27T14:02:43;8.20;99.90
53520;DHT22;39397;53.204;5.778;2024-01-27T14:05:09;8.30;99.90
53520;DHT22;39397;53.204;5.778;2024-01-27T14:07:35;9.30;99.90
53520;DHT22;39397;53.204;5.778;2024-01-27T14:10:01;8.20;99.90
53520;DHT22;39397;53.204;5.778;2024-01-27T14:12:27;8.20;99.90
53520;DHT22;39397;53.204;5.778;2024-01-27T14:15:02;8.30;99.90
53520;DHT22;39397;53.204;5.778;2024-01-27T14:17:28;8.30;99.90
53520;DHT22;39397;53.204;5.778;2024-01-27T14:19:54;8.60;99.90
53520;DHT22;39397;53.204;5.778;2024-01-27T14:22:19;8.30;99.90
53520;DHT22;39397;53.204;5.778;2024-01-27T14:24:45;9.30;99.90
53520;DHT22;39397;53.204;5.778;2024-01-27T14:27:11;8.20;99.90
53520;DHT22;39397;53.204;5.778;2024-01-27T14:29:36;9.50;99.90
53520;DHT22;39397;53.204;5.778;2024-01-27T14:32:03;8.60;99.90
53520;DHT22;39397;53.204;5.778;2024-01-27T14:34:29;8.20;99.90
53520;DHT22;39397;53.204;5.778;2024-01-27T14:36:55;9.30;99.90
53520;DHT22;39397;53.204;5.778;2024-01-27T14:39:20;8.50;99.90
53520;DHT22;39397;53.204;5.778;2024-01-27T14:41:46;8.20;99.90
53520;DHT22;39397;53.204;5.778;2024-01-27T14:44:12;6.70;99.90
53520;DHT22;39397;53.204;5.778;2024-01-27T14:46:38;8.00;99.90
53520;DHT22;39397;53.204;5.778;2024-01-27T14:49:08;9.10;99.90
53520;DHT22;39397;53.204;5.778;2024-01-27T14:51:37;7.90;99.90
53520;DHT22;39397;53.204;5.778;2024-01-27T14:54:03;8.10;99.90
53520;DHT22;39397;53.204;5.778;2024-01-27T14:56:32;7.80;99.90
53520;DHT22;39397;53.204;5.778;2024-01-27T14:58:59;8.30;99.90
53520;DHT22;39397;53.204;5.778;2024-01-27T15:01:25;8.20;99.90
53520;DHT22;39397;53.204;5.778;2024-01-27T15:03:53;9.00;99.90
53520;DHT22;39397;53.204;5.778;2024-01-27T15:06:21;7.60;99.90
53520;DHT22;39397;53.204;5.778;2024-01-27T15:08:47;8.40;99.90
53520;DHT22;39397;53.204;5.778;2024-01-27T15:11:12;7.70;99.90
53520;DHT22;39397;53.204;5.778;2024-01-27T15:13:41;8.40;99.90
53520;DHT22;39397;53.204;5.778;2024-01-27T15:16:06;7.50;99.90
53520;DHT22;39397;53.204;5.778;2024-01-27T15:18:32;9.40;99.90
53520;DHT22;39397;53.204;5.778;2024-01-27T15:20:59;8.10;99.90
53520;DHT22;39397;53.204;5.778;2024-01-27T15:23:25;7.40;99.90
53520;DHT22;39397;53.204;5.778;2024-01-27T15:25:52;7.50;99.90
53520;DHT22;39397;53.204;5.778;2024-01-27T15:28:18;7.10;99.90
53520;DHT22;39397;53.204;5.778;2024-01-27T15:30:44;8.60;99.90
53520;DHT22;39397;53.204;5.778;2024-01-27T15:33:13;7.10;99.90
53520;DHT22;39397;53.204;5.778;2024-01-27T15:35:38;7.00;99.90
53520;DHT22;39397;53.204;5.778;2024-01-27T15:38:04;7.00;99.90
53520;DHT22;39397;53.204;5.778;2024-01-27T15:40:30;6.80;99.90